Time;durP1;ratioP1;P1;durP2;ratioP2;P2;SDS_P1;SDS_P2;PMS_P1;PMS_P2;Temp;Humidity;BMP_temperature;BMP_pressure;BME280_temperature;BME280_humidity;BME280_pressure;Samples;Min_cycle;Max_cycle;Signal;HPM_P1;HPM_P2
2023/03/26 00:01:04;;;;;;;33.88;5.85;;;;;;;;;;5053361;28;20013;-71
2023/03/26 00:03:32;;;;;;;32.80;5.90;;;;;;;;;;5052953;28;20017;-72
2023/03/26 00:06:16;;;;;;;31.17;6.05;;;;;;;;;;5053238;28;20048;-73
2023/03/26 00:08:43;;;;;;;32.45;5.60;;;;;;;;;;5053274;28;20032;-70
2023/03/26 00:11:10;;;;;;;31.20;5.50;;;;;;;;;;5053095;28;20479;-71
2023/03/26 00:13:36;;;;;;;24.58;4.78;;;;;;;;;;5052746;28;20029;-72
2023/03/26 00:16:02;;;;;;;41.47;6.07;;;;;;;;;;5053361;28;20024;-72
2023/03/26 00:18:30;;;;;;;34.03;6.22;;;;;;;;;;5053215;28;20108;-73
2023/03/26 00:20:59;;;;;;;34.38;5.50;;;;;;;;;;5057696;28;20021;-73
2023/03/26 00:23:27;;;;;;;33.55;5.53;;;;;;;;;;5057750;28;20029;-72
2023/03/26 00:25:53;;;;;;;31.83;6.20;;;;;;;;;;5056202;28;20025;-72
2023/03/26 00:28:22;;;;;;;33.47;4.88;;;;;;;;;;5057090;28;20075;-72
2023/03/26 00:31:07;;;;;;;32.28;4.63;;;;;;;;;;5058048;28;20021;-72
2023/03/26 00:33:37;;;;;;;25.65;4.80;;;;;;;;;;5057784;28;20029;-72
2023/03/26 00:36:04;;;;;;;32.65;5.05;;;;;;;;;;5053039;28;20027;-72
2023/03/26 00:38:30;;;;;;;36.63;5.18;;;;;;;;;;5052959;28;20025;-72
2023/03/26 00:41:04;;;;;;;31.23;4.78;;;;;;;;;;5052623;28;20302;-72
2023/03/26 00:43:31;;;;;;;25.35;4.20;;;;;;;;;;5052133;28;20029;-72
2023/03/26 00:45:57;;;;;;;28.25;4.05;;;;;;;;;;5052350;28;20032;-71
2023/03/26 00:48:26;;;;;;;18.80;3.50;;;;;;;;;;5052246;28;20070;-72
2023/03/26 00:50:52;;;;;;;21.67;3.28;;;;;;;;;;5052401;28;20032;-72
2023/03/26 00:53:18;;;;;;;20.92;3.70;;;;;;;;;;5052571;28;20490;-73
2023/03/26 00:55:45;;;;;;;21.77;3.13;;;;;;;;;;5054775;28;20021;-72
2023/03/26 00:58:12;;;;;;;15.25;2.92;;;;;;;;;;5054225;28;20218;-72
2023/03/26 01:00:41;;;;;;;21.38;3.00;;;;;;;;;;5053834;28;20033;-72
2023/03/26 01:03:11;;;;;;;14.40;2.80;;;;;;;;;;5066820;28;20115;-70
2023/03/26 01:05:41;;;;;;;14.48;2.50;;;;;;;;;;5054877;28;20453;-70
2023/03/26 01:08:26;;;;;;;14.70;2.90;;;;;;;;;;5052122;28;20017;-72
2023/03/26 01:11:01;;;;;;;30.35;3.92;;;;;;;;;;5052018;28;20051;-71
2023/03/26 01:13:28;;;;;;;26.35;3.80;;;;;;;;;;5052134;28;20024;-71
2023/03/26 01:15:54;;;;;;;26.88;4.68;;;;;;;;;;5051917;28;20055;-71
2023/03/26 01:18:25;;;;;;;19.92;3.08;;;;;;;;;;5051891;28;20021;-72
2023/03/26 01:20:57;;;;;;;25.55;3.90;;;;;;;;;;5052269;28;20027;-72
2023/03/26 01:23:24;;;;;;;24.42;4.78;;;;;;;;;;5051215;28;20371;-72
2023/03/26 01:26:13;;;;;;;23.88;3.53;;;;;;;;;;5051417;28;20039;-72
2023/03/26 01:28:40;;;;;;;20.90;3.40;;;;;;;;;;5051486;28;20574;-72
2023/03/26 01:31:16;;;;;;;24.38;3.45;;;;;;;;;;5051669;28;20437;-72
2023/03/26 01:33:52;;;;;;;18.95;3.15;;;;;;;;;;5051470;28;20032;-71
2023/03/26 01:36:25;;;;;;;33.15;4.25;;;;;;;;;;5051557;28;20051;-71
2023/03/26 01:38:58;;;;;;;26.83;3.38;;;;;;;;;;5052137;28;20050;-71
2023/03/26 01:41:27;;;;;;;25.63;3.38;;;;;;;;;;5050871;28;20013;-73
2023/03/26 01:43:53;;;;;;;19.45;3.13;;;;;;;;;;5050980;28;20437;-72
2023/03/26 01:46:20;;;;;;;22.77;3.58;;;;;;;;;;5051147;28;20029;-72
2023/03/26 01:48:46;;;;;;;29.05;3.35;;;;;;;;;;5051198;28;20059;-72
2023/03/26 01:51:13;;;;;;;22.95;3.33;;;;;;;;;;5050328;28;20056;-72
2023/03/26 01:53:42;;;;;;;31.08;3.72;;;;;;;;;;5050887;28;20219;-72
2023/03/26 01:56:11;;;;;;;37.60;4.88;;;;;;;;;;5050957;28;20028;-71
2023/03/26 01:59:00;;;;;;;30.83;4.07;;;;;;;;;;5051011;28;20127;-72
2023/03/26 02:01:28;;;;;;;40.13;4.85;;;;;;;;;;5038068;28;20090;-71
2023/03/26 02:03:59;;;;;;;38.40;3.92;;;;;;;;;;5050749;28;20167;-72
2023/03/26 02:06:29;;;;;;;30.88;4.32;;;;;;;;;;5051232;28;20100;-71
2023/03/26 02:09:00;;;;;;;25.92;4.28;;;;;;;;;;5051345;28;20039;-72
2023/03/26 02:11:26;;;;;;;29.40;3.92;;;;;;;;;;5051962;28;20330;-72
2023/03/26 02:13:52;;;;;;;28.63;4.20;;;;;;;;;;5051153;28;20029;-71
2023/03/26 02:16:19;;;;;;;35.15;4.03;;;;;;;;;;5052798;28;20025;-71
2023/03/26 02:18:50;;;;;;;27.75;3.83;;;;;;;;;;5054221;28;20021;-71
2023/03/26 02:21:20;;;;;;;28.98;3.80;;;;;;;;;;5054678;28;20021;-71
2023/03/26 02:23:49;;;;;;;29.58;3.90;;;;;;;;;;5053852;28;20025;-70
2023/03/26 02:26:16;;;;;;;29.98;3.55;;;;;;;;;;5051773;28;20104;-71
2023/03/26 02:28:42;;;;;;;34.20;5.15;;;;;;;;;;5050655;28;20040;-72
2023/03/26 02:31:12;;;;;;;28.85;4.68;;;;;;;;;;5050661;28;20025;-71
2023/03/26 02:33:39;;;;;;;27.45;4.25;;;;;;;;;;5050207;28;20049;-72
2023/03/26 02:36:07;;;;;;;28.48;3.33;;;;;;;;;;5050528;28;20216;-71
2023/03/26 02:38:34;;;;;;;27.17;3.00;;;;;;;;;;5050619;28;20337;-71
2023/03/26 02:41:00;;;;;;;28.00;4.43;;;;;;;;;;5051201;28;20060;-71
2023/03/26 02:43:26;;;;;;;26.52;3.00;;;;;;;;;;5050729;28;20093;-72
2023/03/26 02:45:52;;;;;;;26.95;3.83;;;;;;;;;;5050818;28;20029;-72
2023/03/26 02:48:19;;;;;;;27.63;3.25;;;;;;;;;;5050880;28;20029;-71
2023/03/26 02:50:48;;;;;;;19.65;2.10;;;;;;;;;;5050791;28;20024;-71
2023/03/26 02:53:14;;;;;;;22.27;3.00;;;;;;;;;;5053623;28;20116;-72
2023/03/26 02:55:40;;;;;;;19.02;2.53;;;;;;;;;;5054594;28;20035;-70
2023/03/26 02:58:06;;;;;;;22.38;2.90;;;;;;;;;;5054425;28;20021;-71
2023/03/26 03:00:33;;;;;;;24.65;3.55;;;;;;;;;;5054400;28;20052;-71
2023/03/26 03:03:02;;;;;;;14.65;2.25;;;;;;;;;;5054963;28;20394;-72
2023/03/26 03:05:30;;;;;;;17.58;3.42;;;;;;;;;;5055277;28;20100;-70
2023/03/26 03:07:56;;;;;;;16.30;2.80;;;;;;;;;;5055158;28;20035;-71
2023/03/26 03:10:22;;;;;;;22.02;2.47;;;;;;;;;;5055335;28;20017;-69
2023/03/26 03:12:48;;;;;;;17.85;2.60;;;;;;;;;;5054966;28;20450;-71
2023/03/26 03:15:14;;;;;;;23.48;2.92;;;;;;;;;;5055216;28;20052;-72
2023/03/26 03:17:40;;;;;;;22.52;3.10;;;;;;;;;;5055119;28;20389;-71
2023/03/26 03:20:08;;;;;;;20.33;3.05;;;;;;;;;;5055098;28;20471;-71
2023/03/26 03:22:35;;;;;;;21.05;3.00;;;;;;;;;;5054774;28;20284;-70
2023/03/26 03:25:01;;;;;;;24.55;3.00;;;;;;;;;;5055040;28;20068;-70
2023/03/26 03:27:27;;;;;;;25.58;3.22;;;;;;;;;;5055153;28;20108;-71
2023/03/26 03:29:54;;;;;;;32.80;3.28;;;;;;;;;;5054918;28;20052;-71
2023/03/26 03:32:21;;;;;;;23.85;3.25;;;;;;;;;;5055540;28;20025;-71
2023/03/26 03:34:49;;;;;;;21.42;3.03;;;;;;;;;;5056873;28;20028;-71
2023/03/26 03:37:15;;;;;;;22.85;3.08;;;;;;;;;;5056945;28;20051;-71
2023/03/26 03:39:41;;;;;;;25.85;2.75;;;;;;;;;;5055828;28;20036;-71
2023/03/26 03:42:07;;;;;;;21.77;3.15;;;;;;;;;;5057781;28;20021;-73
2023/03/26 03:44:33;;;;;;;18.45;2.90;;;;;;;;;;5056675;28;20383;-74
2023/03/26 03:46:59;;;;;;;18.55;3.15;;;;;;;;;;5056565;28;20033;-73
2023/03/26 03:49:25;;;;;;;20.02;2.90;;;;;;;;;;5058366;28;20051;-72
2023/03/26 03:51:51;;;;;;;25.73;3.42;;;;;;;;;;5038403;28;20470;-73
2023/03/26 03:54:17;;;;;;;26.02;2.58;;;;;;;;;;5055544;28;20021;-71
2023/03/26 03:56:44;;;;;;;18.35;2.78;;;;;;;;;;5054568;28;20040;-71
2023/03/26 03:59:10;;;;;;;29.40;2.83;;;;;;;;;;5054392;28;20063;-71
2023/03/26 04:01:36;;;;;;;27.65;4.03;;;;;;;;;;5054297;28;20036;-71
2023/03/26 04:04:03;;;;;;;20.65;2.75;;;;;;;;;;5053225;28;20025;-72
2023/03/26 04:06:29;;;;;;;24.63;3.00;;;;;;;;;;5054777;28;20394;-72
2023/03/26 04:08:55;;;;;;;26.65;3.63;;;;;;;;;;5060538;28;20050;-73
2023/03/26 04:11:21;;;;;;;21.15;3.50;;;;;;;;;;5060540;28;20021;-71
2023/03/26 04:13:47;;;;;;;30.55;4.18;;;;;;;;;;5054327;28;20025;-72
2023/03/26 04:16:13;;;;;;;24.27;3.83;;;;;;;;;;5056907;28;20367;-71
2023/03/26 04:18:39;;;;;;;31.02;3.38;;;;;;;;;;5054731;28;20021;-71
2023/03/26 04:21:06;;;;;;;30.45;3.58;;;;;;;;;;5053947;28;20017;-70
2023/03/26 04:23:33;;;;;;;27.85;3.60;;;;;;;;;;5053610;28;20032;-71
2023/03/26 04:26:02;;;;;;;28.25;3.38;;;;;;;;;;5053747;28;20025;-70
2023/03/26 04:28:30;;;;;;;24.45;3.55;;;;;;;;;;5053609;28;20025;-71
2023/03/26 04:30:59;;;;;;;27.70;4.05;;;;;;;;;;5053629;28;20494;-71
2023/03/26 04:33:27;;;;;;;26.70;3.17;;;;;;;;;;5053322;28;20112;-71
2023/03/26 04:35:53;;;;;;;16.50;3.58;;;;;;;;;;5053384;28;20028;-72
2023/03/26 04:38:19;;;;;;;20.30;2.83;;;;;;;;;;5053274;28;20031;-71
2023/03/26 04:40:48;;;;;;;23.90;2.80;;;;;;;;;;5053322;28;20046;-70
2023/03/26 04:43:16;;;;;;;23.73;3.72;;;;;;;;;;5053041;28;20025;-73
2023/03/26 04:45:44;;;;;;;23.30;2.75;;;;;;;;;;5053615;28;20028;-75
2023/03/26 04:48:13;;;;;;;13.50;2.08;;;;;;;;;;5053411;28;20032;-72
2023/03/26 04:50:39;;;;;;;16.98;2.20;;;;;;;;;;5053394;28;20029;-72
2023/03/26 04:53:05;;;;;;;12.07;1.90;;;;;;;;;;5052912;28;20398;-71
2023/03/26 04:55:34;;;;;;;14.93;2.08;;;;;;;;;;5053028;28;20029;-71
2023/03/26 04:58:04;;;;;;;15.23;2.22;;;;;;;;;;5053301;28;20114;-71
2023/03/26 05:00:30;;;;;;;13.80;2.22;;;;;;;;;;5053720;28;20029;-72
2023/03/26 05:02:58;;;;;;;19.83;2.67;;;;;;;;;;5053233;28;20033;-72
2023/03/26 05:05:24;;;;;;;22.60;3.17;;;;;;;;;;5053453;28;20025;-73
2023/03/26 05:07:50;;;;;;;18.23;2.80;;;;;;;;;;5057571;28;20118;-77
2023/03/26 05:10:19;;;;;;;17.33;2.25;;;;;;;;;;5068674;28;20028;-76
2023/03/26 05:12:45;;;;;;;19.92;2.63;;;;;;;;;;5065017;28;20036;-75
2023/03/26 05:15:11;;;;;;;18.80;2.78;;;;;;;;;;5065728;28;20120;-74
2023/03/26 05:17:41;;;;;;;21.55;2.97;;;;;;;;;;5063626;28;20025;-76
2023/03/26 05:20:16;;;;;;;23.42;3.38;;;;;;;;;;5065389;28;20098;-75
2023/03/26 05:22:43;;;;;;;16.27;2.30;;;;;;;;;;5063247;28;20115;-73
2023/03/26 05:25:10;;;;;;;23.52;3.05;;;;;;;;;;5062335;28;20474;-75
2023/03/26 05:27:36;;;;;;;23.30;2.53;;;;;;;;;;5064704;28;20024;-75
2023/03/26 05:30:02;;;;;;;19.75;2.90;;;;;;;;;;5054474;28;20351;-74
2023/03/26 05:32:29;;;;;;;24.38;2.67;;;;;;;;;;5074779;28;20035;-73
2023/03/26 05:34:56;;;;;;;23.75;3.03;;;;;;;;;;5067828;28;20119;-71
2023/03/26 05:37:23;;;;;;;17.75;2.67;;;;;;;;;;5046715;28;20032;-71
2023/03/26 05:39:51;;;;;;;26.65;3.00;;;;;;;;;;5062488;28;20017;-72
2023/03/26 05:42:17;;;;;;;22.15;2.35;;;;;;;;;;5063927;28;20033;-79
2023/03/26 05:44:44;;;;;;;18.25;2.38;;;;;;;;;;5067264;28;20100;-72
2023/03/26 05:47:10;;;;;;;15.98;2.65;;;;;;;;;;5067044;28;20156;-71
2023/03/26 05:49:36;;;;;;;25.00;3.53;;;;;;;;;;5071628;28;20101;-71
2023/03/26 05:52:02;;;;;;;20.30;2.67;;;;;;;;;;5065250;28;20076;-71
2023/03/26 05:54:27;;;;;;;20.27;2.72;;;;;;;;;;5065787;28;20032;-73
2023/03/26 05:56:55;;;;;;;20.73;2.72;;;;;;;;;;5065633;28;20033;-73
2023/03/26 05:59:21;;;;;;;20.13;2.92;;;;;;;;;;5069234;28;20075;-71
2023/03/26 06:01:47;;;;;;;18.75;2.88;;;;;;;;;;5071847;28;20032;-72
2023/03/26 06:04:14;;;;;;;20.80;2.63;;;;;;;;;;5069248;28;20046;-72
2023/03/26 06:06:41;;;;;;;26.00;3.00;;;;;;;;;;5067476;28;20121;-72
2023/03/26 06:09:07;;;;;;;19.13;3.17;;;;;;;;;;5063319;28;20032;-71
2023/03/26 06:11:33;;;;;;;26.75;3.40;;;;;;;;;;5063993;28;20028;-71
2023/03/26 06:14:00;;;;;;;24.15;3.22;;;;;;;;;;5058285;28;20398;-71
2023/03/26 06:16:26;;;;;;;18.45;2.63;;;;;;;;;;5060241;28;20068;-72
2023/03/26 06:18:52;;;;;;;27.02;3.15;;;;;;;;;;5067296;28;20108;-76
2023/03/26 06:21:19;;;;;;;20.20;3.53;;;;;;;;;;5060491;28;20060;-71
2023/03/26 06:23:47;;;;;;;34.22;3.70;;;;;;;;;;5051340;28;20049;-71
2023/03/26 06:26:14;;;;;;;20.83;3.28;;;;;;;;;;5051419;28;20024;-71
2023/03/26 06:28:40;;;;;;;29.77;4.75;;;;;;;;;;5051446;28;20099;-70
2023/03/26 06:31:06;;;;;;;40.60;8.15;;;;;;;;;;5052347;28;20055;-70
2023/03/26 06:33:32;;;;;;;32.20;5.63;;;;;;;;;;5051974;28;20430;-70
2023/03/26 06:35:58;;;;;;;24.30;3.40;;;;;;;;;;5033942;28;20032;-71
2023/03/26 06:38:24;;;;;;;26.58;3.08;;;;;;;;;;5051858;28;20155;-75
2023/03/26 06:40:50;;;;;;;23.30;3.17;;;;;;;;;;5052503;28;20029;-71
2023/03/26 06:43:16;;;;;;;22.73;3.40;;;;;;;;;;5052699;28;20025;-72
2023/03/26 06:45:42;;;;;;;27.67;3.72;;;;;;;;;;5053096;28;20029;-73
2023/03/26 06:48:08;;;;;;;21.65;3.63;;;;;;;;;;5052813;28;20502;-72
2023/03/26 06:50:34;;;;;;;34.28;3.90;;;;;;;;;;5053037;28;20082;-72
2023/03/26 06:53:00;;;;;;;21.42;3.15;;;;;;;;;;5052360;28;20037;-70
2023/03/26 06:55:26;;;;;;;26.08;3.42;;;;;;;;;;5055060;28;20551;-70
2023/03/26 06:57:54;;;;;;;24.13;3.20;;;;;;;;;;5052771;28;20033;-71
2023/03/26 07:00:21;;;;;;;32.55;3.33;;;;;;;;;;5051444;28;20036;-70
2023/03/26 07:02:47;;;;;;;28.80;4.45;;;;;;;;;;5051005;28;20538;-71
2023/03/26 07:05:13;;;;;;;31.98;4.15;;;;;;;;;;5051362;28;20095;-70
2023/03/26 07:07:39;;;;;;;27.55;3.40;;;;;;;;;;5051409;28;20096;-69
2023/03/26 07:10:05;;;;;;;25.65;3.22;;;;;;;;;;5051283;28;20443;-70
2023/03/26 07:12:31;;;;;;;23.08;3.25;;;;;;;;;;5050847;28;20368;-71
2023/03/26 07:14:58;;;;;;;30.02;3.72;;;;;;;;;;5051191;28;20032;-71
2023/03/26 07:17:24;;;;;;;28.67;3.72;;;;;;;;;;5051026;28;20017;-70
2023/03/26 07:19:52;;;;;;;35.22;4.10;;;;;;;;;;5051154;28;20033;-71
2023/03/26 07:22:22;;;;;;;34.60;4.03;;;;;;;;;;5050998;28;20021;-72
2023/03/26 07:24:48;;;;;;;28.50;3.72;;;;;;;;;;5051120;28;20083;-70
2023/03/26 07:27:24;;;;;;;42.88;4.65;;;;;;;;;;5051199;28;20078;-70
2023/03/26 07:29:56;;;;;;;28.95;4.72;;;;;;;;;;5051529;28;20032;-71
2023/03/26 07:32:49;;;;;;;35.92;4.68;;;;;;;;;;5051452;28;20111;-71
2023/03/26 07:35:15;;;;;;;31.00;4.68;;;;;;;;;;5048504;28;20072;-71
2023/03/26 07:37:59;;;;;;;49.33;5.82;;;;;;;;;;5058739;28;20032;-71
2023/03/26 07:40:34;;;;;;;36.85;5.30;;;;;;;;;;5071627;28;20024;-71
2023/03/26 07:43:03;;;;;;;39.70;4.70;;;;;;;;;;5056641;28;20434;-70
2023/03/26 07:45:32;;;;;;;48.72;5.43;;;;;;;;;;5055229;28;20082;-71
2023/03/26 07:47:58;;;;;;;43.95;5.10;;;;;;;;;;5054736;28;20025;-70
2023/03/26 07:50:25;;;;;;;32.28;5.10;;;;;;;;;;5054223;28;20025;-71
2023/03/26 07:52:51;;;;;;;33.70;5.00;;;;;;;;;;5053915;28;20100;-71
2023/03/26 07:55:17;;;;;;;31.95;4.90;;;;;;;;;;5054186;28;20021;-70
2023/03/26 07:57:48;;;;;;;33.28;5.10;;;;;;;;;;5054016;28;20063;-70
2023/03/26 08:00:21;;;;;;;40.65;5.15;;;;;;;;;;5054188;28;20044;-70
2023/03/26 08:03:01;;;;;;;32.70;4.88;;;;;;;;;;5069022;28;20028;-70
2023/03/26 08:05:33;;;;;;;39.92;5.22;;;;;;;;;;5058025;28;20079;-70
2023/03/26 08:08:19;;;;;;;32.45;4.25;;;;;;;;;;5054125;28;20036;-70
2023/03/26 08:11:06;;;;;;;38.67;5.13;;;;;;;;;;5054224;28;20017;-72
2023/03/26 08:13:39;;;;;;;33.83;4.55;;;;;;;;;;5053561;28;20033;-70
2023/03/26 08:16:11;;;;;;;30.27;4.38;;;;;;;;;;5054698;28;20021;-70
2023/03/26 08:18:46;;;;;;;29.33;4.53;;;;;;;;;;5074290;28;20020;-70
2023/03/26 08:21:15;;;;;;;47.58;5.90;;;;;;;;;;5074088;28;20389;-70
2023/03/26 08:23:54;;;;;;;36.08;5.75;;;;;;;;;;5073758;28;20078;-70
2023/03/26 08:26:26;;;;;;;39.85;4.70;;;;;;;;;;5073899;28;20024;-70
2023/03/26 08:29:18;;;;;;;41.83;5.88;;;;;;;;;;5073865;28;20035;-71
2023/03/26 08:31:45;;;;;;;32.38;4.68;;;;;;;;;;5035085;28;20048;-71
2023/03/26 08:34:12;;;;;;;47.08;5.70;;;;;;;;;;5072443;28;20059;-70
2023/03/26 08:36:38;;;;;;;30.70;5.03;;;;;;;;;;5072371;28;20029;-71
2023/03/26 08:39:04;;;;;;;30.95;4.43;;;;;;;;;;5072380;28;20035;-72
2023/03/26 08:41:30;;;;;;;34.55;4.78;;;;;;;;;;5072042;28;20067;-70
2023/03/26 08:43:56;;;;;;;36.75;4.93;;;;;;;;;;5072120;28;20056;-71
2023/03/26 08:46:25;;;;;;;31.63;5.15;;;;;;;;;;5071799;28;20111;-72
2023/03/26 08:49:00;;;;;;;32.30;4.85;;;;;;;;;;5072091;28;20031;-71
2023/03/26 08:51:51;;;;;;;36.47;5.00;;;;;;;;;;5071943;28;20032;-69
2023/03/26 08:54:26;;;;;;;31.58;5.97;;;;;;;;;;5071985;28;20385;-70
2023/03/26 08:57:11;;;;;;;29.77;5.53;;;;;;;;;;5071734;28;20031;-71
2023/03/26 08:59:46;;;;;;;31.88;5.03;;;;;;;;;;5072157;28;20460;-71
2023/03/26 09:02:31;;;;;;;29.55;4.63;;;;;;;;;;5071749;28;20062;-71
2023/03/26 09:05:14;;;;;;;34.22;5.05;;;;;;;;;;5073861;28;20033;-72
2023/03/26 09:07:51;;;;;;;25.40;4.50;;;;;;;;;;5074813;28;20103;-72
2023/03/26 09:10:36;;;;;;;31.88;5.50;;;;;;;;;;5075162;28;20025;-72
2023/03/26 09:13:24;;;;;;;29.00;4.10;;;;;;;;;;5076598;28;20036;-74
2023/03/26 09:15:57;;;;;;;32.40;5.30;;;;;;;;;;5057595;28;20060;-71
2023/03/26 09:18:22;;;;;;;30.25;4.05;;;;;;;;;;5074996;28;20021;-71
2023/03/26 09:21:07;;;;;;;35.60;4.35;;;;;;;;;;5079239;28;20047;-74
2023/03/26 09:23:33;;;;;;;30.20;3.92;;;;;;;;;;5073576;28;20036;-74
2023/03/26 09:26:18;;;;;;;32.47;4.40;;;;;;;;;;5071703;28;20033;-74
2023/03/26 09:28:46;;;;;;;27.98;4.35;;;;;;;;;;5071927;28;20504;-75
2023/03/26 09:31:31;;;;;;;24.95;4.20;;;;;;;;;;5071889;28;20047;-74
2023/03/26 09:34:23;;;;;;;26.77;3.75;;;;;;;;;;5071421;28;20056;-73
2023/03/26 09:36:55;;;;;;;23.85;4.00;;;;;;;;;;5067240;28;20093;-73
2023/03/26 09:39:22;;;;;;;28.88;4.18;;;;;;;;;;5071848;28;20024;-71
2023/03/26 09:41:57;;;;;;;33.92;4.57;;;;;;;;;;5071559;28;20017;-70
2023/03/26 09:44:42;;;;;;;27.90;4.07;;;;;;;;;;5074562;28;20663;-72
2023/03/26 09:47:26;;;;;;;25.05;4.53;;;;;;;;;;5077286;28;20104;-73
2023/03/26 09:49:55;;;;;;;26.20;4.20;;;;;;;;;;5077693;28;20101;-72
2023/03/26 09:52:25;;;;;;;25.77;4.50;;;;;;;;;;5074506;28;20050;-73
2023/03/26 09:54:54;;;;;;;26.05;4.13;;;;;;;;;;5053898;28;20178;-72
2023/03/26 09:57:39;;;;;;;36.55;4.80;;;;;;;;;;5070926;28;20115;-72
2023/03/26 10:00:06;;;;;;;;;;;;;;;;;;5053386;28;20317;-72
2023/03/26 10:02:44;;;;;;;22.67;3.90;;;;;;;;;;5052235;28;19904;-71
2023/03/26 10:05:26;;;;;;;20.83;4.10;;;;;;;;;;5071045;28;20485;-72
2023/03/26 10:07:56;;;;;;;23.30;4.30;;;;;;;;;;5070720;28;20032;-72
2023/03/26 10:10:43;;;;;;;31.25;4.40;;;;;;;;;;5070976;28;20025;-72
2023/03/26 10:13:27;;;;;;;21.77;3.58;;;;;;;;;;5070481;28;20104;-72
2023/03/26 10:15:55;;;;;;;25.15;4.57;;;;;;;;;;5070892;28;20386;-73
2023/03/26 10:18:36;;;;;;;38.60;5.00;;;;;;;;;;5070933;28;20013;-73
2023/03/26 10:21:13;;;;;;;23.42;3.42;;;;;;;;;;5071592;28;20101;-72
2023/03/26 10:23:45;;;;;;;31.77;4.70;;;;;;;;;;5071557;28;20450;-74
2023/03/26 10:26:14;;;;;;;28.33;4.57;;;;;;;;;;5072486;28;20090;-73
2023/03/26 10:28:40;;;;;;;35.45;4.65;;;;;;;;;;5072577;28;20103;-74
2023/03/26 10:31:45;;;;;;;34.78;5.25;;;;;;;;;;5072680;28;20135;-75
2023/03/26 10:34:29;;;;;;;26.05;3.97;;;;;;;;;;4974789;28;20513;-75
2023/03/26 10:36:58;;;;;;;28.88;4.05;;;;;;;;;;4973343;28;20058;-73
2023/03/26 10:39:33;;;;;;;26.35;4.38;;;;;;;;;;5033701;28;20071;-75
2023/03/26 10:42:05;;;;;;;24.58;4.25;;;;;;;;;;5072125;28;20460;-76
2023/03/26 10:44:46;;;;;;;22.75;3.72;;;;;;;;;;5072104;28;20028;-75
2023/03/26 10:47:19;;;;;;;25.67;5.00;;;;;;;;;;5071572;28;20039;-74
2023/03/26 10:50:04;;;;;;;34.72;5.13;;;;;;;;;;5071873;28;20029;-74
2023/03/26 10:52:36;;;;;;;22.27;4.32;;;;;;;;;;5071366;28;20639;-74
2023/03/26 10:55:08;;;;;;;25.73;4.72;;;;;;;;;;5071608;28;20032;-73
2023/03/26 10:57:43;;;;;;;24.15;3.90;;;;;;;;;;5071830;28;20431;-75
2023/03/26 11:00:16;;;;;;;23.95;4.10;;;;;;;;;;5071955;28;20031;-76
2023/03/26 11:02:46;;;;;;;28.05;4.65;;;;;;;;;;5071398;28;20540;-75
2023/03/26 11:05:18;;;;;;;22.90;4.43;;;;;;;;;;5071094;28;20078;-73
2023/03/26 11:07:59;;;;;;;26.30;4.05;;;;;;;;;;5052332;28;20043;-72
2023/03/26 11:10:41;;;;;;;25.02;4.13;;;;;;;;;;5089346;28;20481;-73
2023/03/26 11:13:33;;;;;;;20.77;3.85;;;;;;;;;;5091881;28;20107;-73
2023/03/26 11:16:04;;;;;;;26.38;4.22;;;;;;;;;;5095433;28;20097;-72
2023/03/26 11:18:41;;;;;;;26.05;4.70;;;;;;;;;;5080449;28;20029;-71
2023/03/26 11:21:25;;;;;;;25.40;4.35;;;;;;;;;;5057506;28;20024;-72
2023/03/26 11:24:06;;;;;;;21.45;3.55;;;;;;;;;;5075454;28;20060;-72
2023/03/26 11:26:32;;;;;;;31.02;4.50;;;;;;;;;;5075644;28;20029;-73
2023/03/26 11:28:58;;;;;;;27.42;4.20;;;;;;;;;;5075655;28;20081;-73
2023/03/26 11:31:36;;;;;;;20.98;4.03;;;;;;;;;;5061630;28;20037;-72
2023/03/26 11:34:15;;;;;;;28.63;4.50;;;;;;;;;;5056723;28;20036;-72
2023/03/26 11:36:46;;;;;;;20.95;4.32;;;;;;;;;;5098309;28;20042;-71
2023/03/26 11:39:14;;;;;;;23.67;4.45;;;;;;;;;;5113593;28;20050;-72
2023/03/26 11:41:40;;;;;;;16.55;4.07;;;;;;;;;;5112533;28;20071;-72
2023/03/26 11:44:07;;;;;;;24.42;4.43;;;;;;;;;;5098355;28;20106;-71
2023/03/26 11:46:36;;;;;;;24.50;3.92;;;;;;;;;;5094323;28;20473;-72
2023/03/26 11:49:05;;;;;;;22.05;4.35;;;;;;;;;;5091933;28;20059;-76
2023/03/26 11:51:35;;;;;;;25.92;5.35;;;;;;;;;;5075256;28;20024;-75
2023/03/26 11:54:02;;;;;;;26.80;4.90;;;;;;;;;;5074207;28;20025;-76
2023/03/26 11:56:43;;;;;;;20.83;4.25;;;;;;;;;;5074551;28;20481;-76
2023/03/26 11:59:12;;;;;;;20.77;4.25;;;;;;;;;;5057220;28;20033;-75
2023/03/26 12:01:42;;;;;;;21.08;4.45;;;;;;;;;;5070957;28;20036;-75
2023/03/26 12:04:13;;;;;;;23.67;4.63;;;;;;;;;;5057966;28;20016;-77
2023/03/26 12:06:47;;;;;;;24.63;4.85;;;;;;;;;;5073016;28;20077;-72
2023/03/26 12:09:16;;;;;;;25.13;4.43;;;;;;;;;;5069404;28;20021;-73
2023/03/26 12:11:44;;;;;;;21.83;4.97;;;;;;;;;;5058246;28;20032;-72
2023/03/26 12:14:16;;;;;;;16.75;4.47;;;26.90;99.90;;;;;;5053803;28;20033;-72
2023/03/26 12:17:07;;;;;;;28.85;4.25;;;27.20;99.90;;;;;;5056202;28;20109;-71
2023/03/26 12:19:39;;;;;;;22.20;4.32;;;26.10;99.90;;;;;;5073948;28;20032;-73
2023/03/26 12:22:05;;;;;;;18.85;3.80;;;26.00;99.90;;;;;;5073298;28;20035;-72
2023/03/26 12:24:33;;;;;;;19.17;3.92;;;26.50;99.90;;;;;;5073446;28;20427;-71
2023/03/26 12:27:19;;;;;;;28.10;4.60;;;27.00;99.90;;;;;;5073484;28;20111;-72
2023/03/26 12:29:58;;;;;;;19.15;3.63;;;27.50;99.90;;;;;;5074487;28;20386;-73
2023/03/26 12:32:30;;;;;;;22.75;4.43;;;27.90;99.90;;;;;;5074164;28;20032;-72
2023/03/26 12:34:56;;;;;;;16.80;4.00;;;28.20;99.90;;;;;;5074881;28;20025;-73
2023/03/26 12:37:52;;;;;;;18.38;3.92;;;28.60;99.90;;;;;;5074308;28;20500;-76
2023/03/26 12:40:33;;;;;;;22.88;4.07;;;28.60;99.90;;;;;;5055395;28;20035;-73
2023/03/26 12:43:01;;;;;;;18.45;3.40;;;29.00;99.90;;;;;;5077865;28;20028;-73
2023/03/26 12:45:36;;;;;;;22.35;3.53;;;29.40;99.90;;;;;;5077185;28;20110;-73
2023/03/26 12:48:03;;;;;;;17.17;4.07;;;29.50;99.90;;;;;;5073509;28;20020;-75
2023/03/26 12:50:44;;;;;;;29.02;4.43;;;29.80;99.90;;;;;;5073072;28;20513;-72
2023/03/26 12:53:25;;;;;;;20.90;4.57;;;30.10;99.90;;;;;;5072651;28;20500;-72
2023/03/26 12:56:00;;;;;;;19.63;4.25;;;29.90;99.90;;;;;;5073102;28;20517;-71
2023/03/26 12:58:38;;;;;;;15.32;4.07;;;30.30;99.90;;;;;;5073466;28;20082;-72
2023/03/26 13:01:14;;;;;;;21.92;3.90;;;30.40;99.90;;;;;;5073198;28;20082;-71
2023/03/26 13:03:52;;;;;;;27.02;4.32;;;30.80;99.90;;;;;;5072784;28;20041;-72
2023/03/26 13:06:29;;;;;;;23.00;3.30;;;29.70;99.90;;;;;;5074080;28;20032;-75
2023/03/26 13:09:28;;;;;;;19.38;4.15;;;29.90;99.90;;;;;;5057073;28;20528;-73
2023/03/26 13:12:18;;;;;;;19.95;3.72;;;30.40;99.90;;;;;;5072195;28;20025;-72
2023/03/26 13:14:55;;;;;;;17.45;3.72;;;30.80;99.90;;;;;;5072572;28;20067;-73
2023/03/26 13:17:39;;;;;;;14.27;3.40;;;30.50;99.90;;;;;;5072115;28;20490;-71
2023/03/26 13:20:20;;;;;;;19.15;4.20;;;29.40;99.90;;;;;;5072469;28;20036;-72
2023/03/26 13:23:09;;;;;;;24.30;4.63;;;29.10;99.90;;;;;;5072256;28;20031;-72
2023/03/26 13:25:50;;;;;;;22.40;4.00;;;29.40;99.90;;;;;;5074186;28;20024;-76
2023/03/26 13:28:28;;;;;;;20.65;3.95;;;30.10;99.90;;;;;;5074521;28;20116;-76
2023/03/26 13:31:04;;;;;;;20.70;4.28;;;30.10;99.90;;;;;;5073636;28;20048;-74
2023/03/26 13:33:39;;;;;;;23.13;4.28;;;30.00;99.90;;;;;;5072791;28;20024;-74
2023/03/26 13:36:20;;;;;;;27.70;5.57;;;28.10;99.90;;;;;;5073828;28;20025;-76
2023/03/26 13:39:17;;;;;;;21.05;3.50;;;27.80;99.90;;;;;;5072837;28;20028;-77
2023/03/26 13:42:07;;;;;;;19.35;3.58;;;27.80;99.90;;;;;;5072733;28;20020;-74
2023/03/26 13:45:10;;;;;;;16.05;3.58;;;28.30;99.90;;;;;;5066573;28;20094;-75
2023/03/26 13:47:43;;;;;;;26.67;4.35;;;27.90;99.90;;;;;;5052083;28;20091;-75
2023/03/26 13:50:28;;;;;;;26.83;5.15;;;26.00;99.90;;;;;;5051792;28;20023;-74
2023/03/26 13:53:01;;;;;;;17.80;3.83;;;25.00;99.90;;;;;;5051687;28;20053;-77
2023/03/26 13:55:36;;;;;;;16.60;3.92;;;24.30;99.90;;;;;;5052590;28;20577;-76
2023/03/26 13:58:22;;;;;;;20.60;3.63;;;24.70;99.90;;;;;;5051700;28;20188;-75
2023/03/26 14:00:53;;;;;;;21.55;4.05;;;24.80;99.90;;;;;;5051980;28;20110;-74
2023/03/26 14:03:47;;;;;;;18.60;3.33;;;26.00;99.90;;;;;;5051759;28;20486;-77
2023/03/26 14:06:26;;;;;;;24.20;3.97;;;26.60;99.90;;;;;;5052486;28;20048;-74
2023/03/26 14:09:03;;;;;;;17.05;4.13;;;26.10;99.90;;;;;;5054009;28;20090;-74
2023/03/26 14:11:56;;;;;;;25.33;3.97;;;25.20;99.90;;;;;;5052878;28;20490;-76
2023/03/26 14:14:45;;;;;;;18.27;3.50;;;24.40;99.90;;;;;;5052317;28;20032;-73
2023/03/26 14:17:19;;;;;;;14.95;3.00;;;24.80;99.90;;;;;;5051760;28;20028;-72
2023/03/26 14:20:21;;;;;;;25.17;3.83;;;25.00;99.90;;;;;;5051716;28;20433;-72
2023/03/26 14:22:49;;;;;;;30.33;3.63;;;;;;;;;;5051345;28;20025;-71
2023/03/26 14:25:50;;;;;;;15.77;3.95;;;23.30;99.90;;;;;;5051558;28;20067;-73
2023/03/26 14:28:47;;;;;;;16.17;4.30;;;23.30;99.90;;;;;;5051479;28;20024;-72
2023/03/26 14:31:27;;;;;;;19.75;3.60;;;24.10;99.90;;;;;;5051464;28;20027;-72
2023/03/26 14:34:18;;;;;;;20.50;3.58;;;25.20;99.90;;;;;;5051555;28;20056;-73
2023/03/26 14:36:46;;;;;;;15.85;3.47;;;26.00;99.90;;;;;;5051459;28;20025;-72
2023/03/26 14:39:35;;;;;;;22.40;4.32;;;25.70;99.90;;;;;;5050856;28;20021;-72